createdAt,value
2023-05-19T00:02:05.043Z,1.13
2023-05-19T00:05:07.629Z,1.30
2023-05-19T00:08:10.954Z,1.40
2023-05-19T00:11:12.875Z,1.30
2023-05-19T00:14:14.641Z,1.40
2023-05-19T00:17:17.370Z,1.37
2023-05-19T00:20:19.022Z,1.30
2023-05-19T00:23:20.304Z,1.48
2023-05-19T00:26:22.068Z,1.52
2023-05-19T00:29:23.545Z,1.40
2023-05-19T00:32:25.554Z,1.50
2023-05-19T00:35:27.116Z,1.40
2023-05-19T00:38:29.151Z,1.48
2023-05-19T00:41:30.653Z,1.30
2023-05-19T00:44:32.175Z,1.40
2023-05-19T00:47:34.373Z,1.30
2023-05-19T00:50:35.865Z,1.30
2023-05-19T00:53:37.221Z,1.60
2023-05-19T00:56:39.023Z,1.10
2023-05-19T00:59:40.561Z,1.60
2023-05-19T01:02:43.135Z,1.50
2023-05-19T01:05:44.741Z,1.60
2023-05-19T01:08:46.211Z,1.70
2023-05-19T01:11:47.743Z,1.45
2023-05-19T01:14:49.359Z,1.67
2023-05-19T01:17:59.940Z,1.40
2023-05-19T01:21:22.357Z,1.27
2023-05-19T01:24:46.771Z,1.73
2023-05-19T01:28:19.646Z,1.30
2023-05-19T01:31:23.447Z,1.52
2023-05-19T01:34:26.843Z,1.50
2023-05-19T01:37:29.311Z,1.67
2023-05-19T01:40:32.433Z,1.90
2023-05-19T01:43:35.380Z,1.90
2023-05-19T01:46:38.497Z,1.73
2023-05-19T01:49:39.893Z,1.60
2023-05-19T01:52:41.393Z,1.85
2023-05-19T01:55:48.758Z,1.88
2023-05-19T01:58:58.885Z,1.70
2023-05-19T02:02:05.456Z,1.80
2023-05-19T02:05:13.196Z,1.50
2023-05-19T02:08:26.784Z,1.60
2023-05-19T02:11:36.314Z,2.00
2023-05-19T02:14:45.171Z,1.70
2023-05-19T02:17:51.348Z,1.80
2023-05-19T02:20:52.799Z,1.57
2023-05-19T02:23:54.111Z,1.50
2023-05-19T02:26:55.572Z,1.95
2023-05-19T02:29:57.279Z,1.70
2023-05-19T02:32:59.747Z,1.80
2023-05-19T02:36:01.170Z,1.70
2023-05-19T02:39:02.669Z,1.45
2023-05-19T02:42:04.799Z,1.92
2023-05-19T02:45:07.045Z,1.65
2023-05-19T02:48:09.073Z,1.80
2023-05-19T02:51:10.616Z,1.43
2023-05-19T02:54:11.937Z,1.90
2023-05-19T02:57:13.404Z,1.95
2023-05-19T03:00:15.756Z,1.60
2023-05-19T03:03:18.052Z,1.80
2023-05-19T03:06:19.474Z,1.80
2023-05-19T03:09:20.935Z,1.70
2023-05-19T03:12:22.257Z,1.50
2023-05-19T03:15:23.754Z,1.70
2023-05-19T03:18:26.250Z,1.80
2023-05-19T03:21:27.950Z,1.80
2023-05-19T03:24:29.297Z,1.75
2023-05-19T03:27:30.798Z,2.10
2023-05-19T03:30:32.772Z,1.80
2023-05-19T03:33:35.026Z,1.65
2023-05-19T03:36:38.955Z,1.60
2023-05-19T03:39:40.264Z,1.88
2023-05-19T03:42:41.586Z,2.08
2023-05-19T03:45:42.982Z,1.65
2023-05-19T03:48:45.013Z,2.15
2023-05-19T03:51:46.475Z,1.90
2023-05-19T03:54:47.830Z,1.95
2023-05-19T03:57:49.370Z,1.80
2023-05-19T04:00:50.675Z,2.28
2023-05-19T04:03:52.856Z,2.08
2023-05-19T04:06:54.302Z,2.10
2023-05-19T04:09:56.148Z,1.70
2023-05-19T04:12:57.602Z,2.30
2023-05-19T04:15:59.012Z,2.13
2023-05-19T04:19:01.604Z,1.90
2023-05-19T04:22:03.267Z,2.33
2023-05-19T04:25:05.661Z,2.10
2023-05-19T04:28:07.058Z,2.23
2023-05-19T04:31:12.016Z,1.90
2023-05-19T04:34:14.069Z,2.15
2023-05-19T04:37:15.876Z,2.00
2023-05-19T04:40:17.648Z,1.90
2023-05-19T04:43:19.089Z,2.07
2023-05-19T04:46:23.704Z,2.17
2023-05-19T04:49:25.898Z,1.85
2023-05-19T04:52:27.497Z,1.75
2023-05-19T04:55:29.028Z,2.10
2023-05-19T04:58:30.419Z,1.90
2023-05-19T05:01:33.104Z,1.80
2023-05-19T05:04:35.431Z,1.80
2023-05-19T05:07:36.870Z,2.20
2023-05-19T05:10:38.443Z,2.10
2023-05-19T05:13:40.347Z,2.00
2023-05-19T05:16:42.814Z,2.33
2023-05-19T05:19:45.718Z,2.15
2023-05-19T05:22:47.640Z,1.90
2023-05-19T05:25:49.641Z,2.13
2023-05-19T05:28:50.994Z,1.80
2023-05-19T05:31:52.464Z,1.80
2023-05-19T05:34:54.729Z,1.90
2023-05-19T05:37:56.041Z,1.73
2023-05-19T05:40:57.483Z,1.90
2023-05-19T05:43:58.799Z,2.00
2023-05-19T05:47:00.705Z,2.00
2023-05-19T05:50:03.643Z,2.30
2023-05-19T05:53:06.685Z,2.17
2023-05-19T05:56:09.635Z,1.90
2023-05-19T05:59:10.994Z,1.93
2023-05-19T06:02:12.539Z,1.80
2023-05-19T06:05:14.731Z,2.33
2023-05-19T06:08:17.093Z,2.85
2023-05-19T06:11:19.047Z,2.30
2023-05-19T06:14:20.439Z,2.30
2023-05-19T06:17:21.912Z,2.20
2023-05-19T06:20:24.149Z,2.08
2023-05-19T06:23:26.456Z,2.55
2023-05-19T06:26:27.926Z,2.35
2023-05-19T06:29:29.236Z,2.37
2023-05-19T06:32:30.760Z,2.03
2023-05-19T06:35:32.780Z,1.83
2023-05-19T06:38:34.269Z,1.77
2023-05-19T06:41:35.575Z,2.40
2023-05-19T06:44:36.898Z,2.10
2023-05-19T06:47:40.440Z,2.40
2023-05-19T06:50:42.428Z,2.20
2023-05-19T06:53:43.883Z,2.00
2023-05-19T06:56:45.242Z,2.10
2023-05-19T06:59:46.595Z,2.00
2023-05-19T07:02:48.173Z,2.00
2023-05-19T07:05:50.659Z,1.90
2023-05-19T07:08:52.134Z,1.95
2023-05-19T07:11:55.469Z,2.10
2023-05-19T07:14:56.950Z,2.07
2023-05-19T07:17:58.414Z,1.93
2023-05-19T07:21:00.468Z,1.95
2023-05-19T07:24:01.850Z,1.90
2023-05-19T07:27:03.618Z,1.90
2023-05-19T07:30:06.098Z,1.77
2023-05-19T07:33:07.596Z,2.10
2023-05-19T07:36:09.752Z,2.25
2023-05-19T07:39:11.424Z,1.77
2023-05-19T07:42:12.826Z,1.90
2023-05-19T07:45:14.359Z,1.80
2023-05-19T07:48:17.901Z,1.90
2023-05-19T07:51:20.048Z,1.90
2023-05-19T07:54:21.436Z,1.50
2023-05-19T07:57:22.766Z,1.50
2023-05-19T08:00:24.459Z,1.80
2023-05-19T08:03:26.928Z,2.10
2023-05-19T08:06:31.104Z,2.10
2023-05-19T08:09:32.716Z,1.92
2023-05-19T08:12:34.084Z,2.00
2023-05-19T08:15:36.117Z,1.90
2023-05-19T08:18:37.510Z,1.60
2023-05-19T08:21:41.494Z,1.90
2023-05-19T08:24:43.972Z,2.20
2023-05-19T08:27:45.308Z,1.67
2023-05-19T08:30:46.712Z,1.80
2023-05-19T08:33:48.208Z,1.47
2023-05-19T08:36:50.248Z,1.70
2023-05-19T08:39:51.742Z,2.00
2023-05-19T08:42:54.000Z,1.67
2023-05-19T08:45:55.483Z,1.80
2023-05-19T08:49:01.877Z,1.80
2023-05-19T08:52:10.907Z,1.70
2023-05-19T08:55:20.995Z,1.92
2023-05-19T08:58:22.831Z,1.70
2023-05-19T09:01:25.986Z,1.57
2023-05-19T09:04:29.821Z,1.80
2023-05-19T09:07:34.153Z,1.98
2023-05-19T09:10:35.568Z,1.60
2023-05-19T09:13:37.124Z,1.50
2023-05-19T09:16:39.027Z,1.90
2023-05-19T09:19:43.566Z,1.50
2023-05-19T09:22:46.762Z,1.30
2023-05-19T09:25:48.731Z,1.40
2023-05-19T09:28:50.383Z,1.50
2023-05-19T09:31:53.658Z,1.30
2023-05-19T09:34:55.083Z,1.33
2023-05-19T09:37:57.570Z,1.48
2023-05-19T09:41:00.144Z,1.30
2023-05-19T09:44:01.470Z,1.60
2023-05-19T09:47:03.552Z,1.40
2023-05-19T09:50:07.636Z,1.67
2023-05-19T09:53:13.488Z,1.35
2023-05-19T09:56:15.434Z,1.17
2023-05-19T09:59:17.150Z,1.10
2023-05-19T10:02:21.454Z,1.27
2023-05-19T10:05:24.121Z,1.23
2023-05-19T10:08:29.129Z,1.23
2023-05-19T10:11:31.139Z,1.08
2023-05-19T10:14:32.527Z,1.05
2023-05-19T10:17:35.440Z,1.00
2023-05-19T10:20:37.718Z,1.27
2023-05-19T10:23:40.341Z,1.20
2023-05-19T10:26:46.709Z,0.90
2023-05-19T10:29:51.640Z,1.10
2023-05-19T10:32:56.664Z,1.07
2023-05-19T10:36:13.109Z,1.03
2023-05-19T10:39:21.716Z,0.90
2023-05-19T10:42:31.814Z,1.02
2023-05-19T10:45:40.207Z,1.13
2023-05-19T10:48:45.265Z,0.97
2023-05-19T10:51:46.604Z,0.97
2023-05-19T10:54:49.037Z,1.10
2023-05-19T10:57:54.186Z,1.20
2023-05-19T11:01:00.171Z,1.15
2023-05-19T11:04:06.320Z,1.17
2023-05-19T11:07:09.059Z,1.20
2023-05-19T11:10:11.903Z,1.20
2023-05-19T11:13:19.459Z,1.10
2023-05-19T11:16:27.167Z,0.90
2023-05-19T11:19:30.077Z,1.00
2023-05-19T11:22:35.170Z,1.00
2023-05-19T11:25:45.084Z,1.20
2023-05-19T11:28:47.789Z,0.98
2023-05-19T11:31:49.619Z,1.20
2023-05-19T11:34:52.597Z,1.10
2023-05-19T11:37:54.411Z,0.97
2023-05-19T11:40:57.133Z,0.90
2023-05-19T11:43:58.478Z,1.20
2023-05-19T11:47:00.281Z,1.23
2023-05-19T11:50:01.681Z,1.10
2023-05-19T11:53:04.062Z,1.20
2023-05-19T11:56:06.898Z,1.00
2023-05-19T11:59:08.717Z,1.30
2023-05-19T12:02:19.032Z,1.20
2023-05-19T12:05:21.740Z,1.40
2023-05-19T12:08:23.343Z,1.10
2023-05-19T12:11:28.117Z,1.20
2023-05-19T12:14:30.626Z,1.20
2023-05-19T12:17:32.559Z,1.20
2023-05-19T12:20:34.792Z,1.50
2023-05-19T12:23:36.743Z,1.20
2023-05-19T12:26:40.640Z,1.17
2023-05-19T12:29:42.115Z,1.40
2023-05-19T12:32:43.521Z,1.10
2023-05-19T12:35:47.009Z,1.10
2023-05-19T12:38:53.832Z,1.10
2023-05-19T12:42:02.238Z,1.05
2023-05-19T12:45:04.598Z,1.13
2023-05-19T12:48:11.633Z,1.10
2023-05-19T12:51:16.190Z,1.20
2023-05-19T12:54:19.066Z,1.15
2023-05-19T12:57:22.507Z,1.10
2023-05-19T13:00:27.511Z,1.10
2023-05-19T13:03:29.118Z,1.00
2023-05-19T13:06:32.062Z,1.10
2023-05-19T13:09:35.725Z,1.10
2023-05-19T13:12:37.742Z,0.98
2023-05-19T13:15:41.694Z,1.13
2023-05-19T13:18:43.197Z,1.10
2023-05-19T13:21:46.654Z,1.10
2023-05-19T13:24:48.107Z,1.27
2023-05-19T13:27:50.475Z,1.20
2023-05-19T13:30:51.872Z,1.10
2023-05-19T13:33:53.408Z,1.17
2023-05-19T13:36:54.876Z,1.20
2023-05-19T13:39:57.808Z,1.02
2023-05-19T13:43:00.974Z,1.30
2023-05-19T13:46:02.747Z,1.30
2023-05-19T13:49:04.172Z,1.10
2023-05-19T13:52:06.424Z,1.17
2023-05-19T13:55:08.692Z,1.40
2023-05-19T13:58:11.683Z,1.60
2023-05-19T14:01:13.272Z,1.35
2023-05-19T14:04:17.264Z,1.58
2023-05-19T14:07:18.898Z,1.37
2023-05-19T14:10:20.572Z,1.20
2023-05-19T14:13:31.550Z,1.40
2023-05-19T14:16:38.181Z,1.58
2023-05-19T14:19:40.303Z,1.33
2023-05-19T14:22:41.795Z,1.40
2023-05-19T14:25:43.174Z,1.20
2023-05-19T14:28:45.747Z,1.60
2023-05-19T14:31:47.410Z,1.38
2023-05-19T14:34:52.004Z,1.40
2023-05-19T14:37:53.474Z,1.10
2023-05-19T14:40:54.962Z,1.15
2023-05-19T14:43:56.918Z,1.40
2023-05-19T14:46:59.142Z,1.30
2023-05-19T14:50:00.559Z,1.45
2023-05-19T14:53:01.947Z,1.30
2023-05-19T14:56:05.893Z,1.40
2023-05-19T14:59:08.493Z,1.45
2023-05-19T15:02:11.340Z,1.50
2023-05-19T15:05:12.632Z,1.50
2023-05-19T15:08:14.212Z,1.13
2023-05-19T15:11:15.870Z,1.50
2023-05-19T15:14:17.855Z,1.35
2023-05-19T15:17:19.489Z,1.45
2023-05-19T15:20:21.127Z,1.48
2023-05-19T15:23:22.496Z,1.17
2023-05-19T15:26:23.860Z,1.48
2023-05-19T15:29:26.519Z,1.30
2023-05-19T15:32:27.998Z,1.33
2023-05-19T15:35:29.311Z,1.42
2023-05-19T15:38:34.906Z,1.60
2023-05-19T15:41:36.229Z,1.33
2023-05-19T15:44:38.449Z,1.85
2023-05-19T15:47:39.966Z,1.52
2023-05-19T15:50:41.438Z,1.40
2023-05-19T15:53:42.833Z,1.30
2023-05-19T15:56:44.249Z,1.40
2023-05-19T15:59:46.290Z,1.30
2023-05-19T16:02:47.892Z,1.20
2023-05-19T16:05:49.295Z,1.70
2023-05-19T16:08:50.728Z,1.33
2023-05-19T16:11:52.046Z,1.60
2023-05-19T16:14:54.163Z,1.52
2023-05-19T16:17:56.094Z,1.27
2023-05-19T16:20:57.519Z,1.55
2023-05-19T16:23:58.886Z,1.43
2023-05-19T16:27:00.271Z,1.42
2023-05-19T16:30:02.646Z,1.40
2023-05-19T16:33:04.147Z,1.60
2023-05-19T16:36:05.996Z,1.97
2023-05-19T16:39:07.379Z,1.40
2023-05-19T16:42:08.702Z,1.38
2023-05-19T16:45:11.260Z,1.30
2023-05-19T16:48:12.700Z,1.40
2023-05-19T16:51:14.275Z,1.30
2023-05-19T16:54:15.605Z,1.20
2023-05-19T16:57:17.118Z,1.30
2023-05-19T17:00:19.589Z,1.27
2023-05-19T17:03:21.004Z,1.60
2023-05-19T17:06:22.570Z,1.30
2023-05-19T17:09:25.532Z,1.25
2023-05-19T17:12:26.948Z,1.50
2023-05-19T17:15:29.549Z,1.30
2023-05-19T17:21:50.773Z,1.20
2023-05-19T17:24:52.228Z,1.38
2023-05-19T17:27:54.959Z,1.45
2023-05-19T17:30:57.148Z,1.35
2023-05-19T17:33:58.501Z,1.40
2023-05-19T17:37:00.634Z,1.57
2023-05-19T17:40:02.142Z,1.60
2023-05-19T17:43:03.514Z,1.50
2023-05-19T17:46:05.928Z,1.50
2023-05-19T17:49:07.455Z,1.90
2023-05-19T17:52:10.068Z,1.50
2023-05-19T17:55:12.573Z,1.65
2023-05-19T17:58:14.560Z,2.10
2023-05-19T18:01:17.079Z,1.33
2023-05-19T18:04:19.003Z,1.60
2023-05-19T18:07:23.924Z,1.40
2023-05-19T18:10:26.923Z,1.80
2023-05-19T18:13:28.352Z,1.80
2023-05-19T18:16:30.467Z,1.58
2023-05-19T18:19:31.882Z,1.70
2023-05-19T18:22:33.294Z,1.60
2023-05-19T18:25:35.425Z,1.92
2023-05-19T18:28:36.860Z,1.75
2023-05-19T18:31:38.931Z,1.80
2023-05-19T18:34:40.494Z,2.20
2023-05-19T18:37:41.819Z,1.90
2023-05-19T18:40:43.437Z,2.03
2023-05-19T18:43:44.976Z,2.00
2023-05-19T18:46:47.088Z,1.77
2023-05-19T18:49:48.559Z,2.00
2023-05-19T18:52:50.109Z,1.70
2023-05-19T18:55:51.611Z,1.60
2023-05-19T18:58:54.408Z,1.80
2023-05-19T19:01:56.568Z,1.80
2023-05-19T19:04:58.177Z,1.70
2023-05-19T19:07:59.675Z,1.80
2023-05-19T19:11:01.246Z,2.13
2023-05-19T19:14:02.694Z,1.80
2023-05-19T19:17:05.143Z,1.92
2023-05-19T19:20:07.997Z,1.90
2023-05-19T19:23:09.501Z,1.80
2023-05-19T19:26:11.086Z,1.75
2023-05-19T19:29:12.575Z,1.80
2023-05-19T19:32:14.573Z,1.93
2023-05-19T19:35:16.104Z,1.90
2023-05-19T19:38:17.683Z,1.80
2023-05-19T19:41:19.370Z,1.88
2023-05-19T19:44:22.213Z,1.85
2023-05-19T19:47:24.227Z,1.80
2023-05-19T19:50:25.758Z,1.88
2023-05-19T19:53:27.147Z,2.00
2023-05-19T19:56:28.627Z,1.63
2023-05-19T19:59:30.636Z,1.77
2023-05-19T20:02:32.845Z,1.83
2023-05-19T20:05:36.584Z,1.50
2023-05-19T20:08:37.918Z,1.90
2023-05-19T20:11:39.396Z,1.90
2023-05-19T20:14:40.746Z,1.90
2023-05-19T20:17:42.936Z,1.60
2023-05-19T20:20:44.305Z,2.00
2023-05-19T20:23:45.979Z,1.92
2023-05-19T20:26:47.461Z,2.00
2023-05-19T20:29:48.880Z,2.72
2023-05-19T20:32:51.059Z,2.27
2023-05-19T20:35:52.377Z,2.05
2023-05-19T20:38:53.902Z,2.35
2023-05-19T20:41:55.443Z,2.20
2023-05-19T20:44:57.572Z,2.28
2023-05-19T20:48:00.103Z,2.00
2023-05-19T20:51:01.653Z,2.10
2023-05-19T20:54:04.617Z,2.05
2023-05-19T20:57:08.372Z,2.53
2023-05-19T21:00:10.934Z,2.50
2023-05-19T21:03:13.141Z,2.60
2023-05-19T21:06:14.530Z,2.58
2023-05-19T21:09:16.018Z,2.75
2023-05-19T21:12:17.339Z,2.65
2023-05-19T21:15:18.986Z,3.38
2023-05-19T21:18:21.633Z,3.20
2023-05-19T21:21:22.937Z,2.60
2023-05-19T21:24:24.428Z,2.80
2023-05-19T21:27:25.944Z,2.67
2023-05-19T21:30:27.611Z,2.53
2023-05-19T21:33:29.620Z,2.53
2023-05-19T21:36:31.174Z,2.70
2023-05-19T21:39:32.717Z,3.55
2023-05-19T21:42:34.371Z,3.80
2023-05-19T21:45:37.264Z,4.50
2023-05-19T21:48:39.439Z,4.47
2023-05-19T21:51:40.797Z,4.30
2023-05-19T21:54:42.510Z,4.20
2023-05-19T21:57:43.809Z,3.35
2023-05-19T22:00:48.924Z,2.70
2023-05-19T22:03:52.333Z,2.80
2023-05-19T22:06:53.816Z,3.00
2023-05-19T22:09:55.294Z,2.83
2023-05-19T22:12:57.361Z,2.72
2023-05-19T22:15:58.864Z,3.07
2023-05-19T22:19:01.009Z,3.00
2023-05-19T22:22:13.011Z,2.20
2023-05-19T22:25:15.747Z,2.53
2023-05-19T22:28:17.309Z,2.35
2023-05-19T22:31:18.668Z,2.60
2023-05-19T22:34:20.820Z,2.60
2023-05-19T22:37:23.073Z,2.70
2023-05-19T22:40:24.617Z,2.78
2023-05-19T22:43:26.163Z,2.80
2023-05-19T22:46:27.650Z,2.70
2023-05-19T22:49:29.803Z,2.53
2023-05-19T22:52:31.343Z,2.47
2023-05-19T22:55:32.812Z,2.50
2023-05-19T22:58:34.479Z,3.00
2023-05-19T23:01:35.853Z,2.70
2023-05-19T23:04:38.198Z,2.53
2023-05-19T23:07:39.827Z,2.70
2023-05-19T23:10:41.172Z,2.72
2023-05-19T23:13:42.653Z,2.90
2023-05-19T23:16:44.155Z,2.80
2023-05-19T23:19:46.358Z,2.60
2023-05-19T23:22:47.679Z,3.10
2023-05-19T23:25:49.165Z,2.90
2023-05-19T23:28:50.738Z,2.40
2023-05-19T23:31:52.117Z,2.67
2023-05-19T23:34:54.261Z,2.60
2023-05-19T23:37:55.573Z,2.67
2023-05-19T23:40:57.104Z,2.50
2023-05-19T23:43:58.640Z,3.00
2023-05-19T23:47:00.130Z,2.40
2023-05-19T23:50:02.464Z,2.53
2023-05-19T23:53:03.848Z,2.90
2023-05-19T23:56:06.125Z,3.00
2023-05-19T23:59:07.738Z,2.70
